Time;durP1;ratioP1;P1;durP2;ratioP2;P2;SDS_P1;SDS_P2;PMS_P1;PMS_P2;Temp;Humidity;BMP_temperature;BMP_pressure;BME280_temperature;BME280_humidity;BME280_pressure;Samples;Min_cycle;Max_cycle;Signal;HPM_P1;HPM_P2
2023/01/01 00:03:53;;;;;;;24.30;14.25;;;;;;;14.91;75.39;99812.09;12180503;19;20515;-80
2023/01/01 00:07:55;;;;;;;25.10;17.02;;;;;;;14.87;75.25;99822.06;12206008;19;20075;-82
2023/01/01 00:12:05;;;;;;;20.42;12.27;;;;;;;14.91;74.95;99817.63;12206886;19;20006;-81
2023/01/01 00:16:12;;;;;;;21.07;15.27;;;;;;;14.95;74.54;99818.72;12188474;19;20074;-81
2023/01/01 00:20:14;;;;;;;22.65;13.75;;;;;;;14.94;74.76;99822.63;12204721;19;20081;-82
2023/01/01 00:24:16;;;;;;;24.73;17.08;;;;;;;14.88;75.25;99831.22;12214127;19;20003;-81
2023/01/01 00:28:17;;;;;;;28.65;18.48;;;;;;;14.82;75.17;99820.13;12194803;19;20041;-80
2023/01/01 00:32:19;;;;;;;31.58;19.77;;;;;;;14.73;75.82;99820.97;12205446;19;19998;-81
2023/01/01 00:36:26;;;;;;;41.42;23.30;;;;;;;14.66;76.57;99817.63;12204111;19;20013;-81
2023/01/01 00:40:27;;;;;;;49.20;27.23;;;;;;;14.63;77.30;99824.53;12182809;19;20631;-81
2023/01/01 00:44:29;;;;;;;41.03;26.77;;;;;;;14.59;77.53;99837.31;12205004;19;20346;-82
2023/01/01 00:48:31;;;;;;;52.05;29.60;;;;;;;14.53;78.22;99838.41;12207067;19;20002;-80
2023/01/01 00:52:32;;;;;;;45.13;29.33;;;;;;;14.45;78.63;99836.97;12184475;19;20038;-80
2023/01/01 00:56:34;;;;;;;47.47;30.92;;;;;;;14.33;79.81;99845.53;12204783;19;20007;-81
2023/01/01 01:00:37;;;;;;;50.72;32.03;;;;;;;14.24;80.11;99840.81;12201635;19;20496;-81
2023/01/01 01:04:38;;;;;;;44.25;28.02;;;;;;;14.14;81.03;99836.91;12181819;19;20007;-80
2023/01/01 01:08:43;;;;;;;41.50;25.42;;;;;;;14.06;82.25;99836.59;12205307;19;20006;-80
2023/01/01 01:12:45;;;;;;;45.15;25.73;;;;;;;14.04;82.15;99831.34;12205482;19;20044;-80
2023/01/01 01:16:47;;;;;;;39.30;25.17;;;;;;;14.00;82.72;99823.84;12179812;19;20007;-81
2023/01/01 01:20:51;;;;;;;43.50;28.13;;;;;;;13.96;82.82;99833.81;12191311;19;20082;-80
2023/01/01 01:24:52;;;;;;;37.42;23.67;;;;;;;13.89;83.68;99834.91;12194830;19;20561;-80
2023/01/01 01:28:55;;;;;;;36.25;22.08;;;;;;;13.83;84.21;99835.13;12175247;19;20689;-80
2023/01/01 01:32:56;;;;;;;41.13;24.60;;;;;;;13.83;84.39;99835.13;12195203;19;20050;-80
2023/01/01 01:36:58;;;;;;;31.17;20.30;;;;;;;13.86;84.33;99838.22;12171458;19;20487;-80
2023/01/01 01:40:59;;;;;;;24.77;15.48;;;;;;;13.93;83.95;99840.72;12194838;19;20444;-79
2023/01/01 01:45:04;;;;;;;24.67;13.68;;;;;;;13.98;84.07;99849.06;12195178;19;20472;-80
2023/01/01 01:49:15;;;;;;;20.40;11.68;;;;;;;14.07;83.48;99841.91;12177959;19;20042;-80
2023/01/01 01:53:24;;;;;;;20.08;12.57;;;;;;;14.16;83.73;99841.34;12192440;19;20003;-81
2023/01/01 01:57:26;;;;;;;15.60;8.93;;;;;;;14.24;82.63;99843.59;12201708;19;20491;-81
2023/01/01 02:01:28;;;;;;;12.07;6.93;;;;;;;14.33;82.77;99837.22;12175040;19;20015;-80
2023/01/01 02:05:30;;;;;;;14.60;9.17;;;;;;;14.48;82.17;99830.88;12195515;19;20003;-80
2023/01/01 02:09:32;;;;;;;10.93;5.40;;;;;;;14.58;81.58;99828.16;12198691;19;20267;-80
2023/01/01 02:13:34;;;;;;;9.77;5.05;;;;;;;14.71;80.86;99818.44;12177049;19;20007;-80
2023/01/01 02:18:00;;;;;;;9.75;4.63;;;;;;;14.71;80.98;99812.91;12202047;19;20011;-79
2023/01/01 02:22:35;;;;;;;8.43;4.15;;;;;;;14.82;80.26;99800.72;12175654;19;20007;-80
2023/01/01 02:26:55;;;;;;;9.65;3.60;;;;;;;14.88;79.61;99817.38;12200134;19;21351;-80
2023/01/01 02:31:00;;;;;;;6.47;3.38;;;;;;;15.00;79.20;99815.94;12180630;19;20011;-80
2023/01/01 02:39:34;;;;;;;6.03;3.25;;;;;;;15.03;78.72;99820.94;12189541;19;20003;-81
2023/01/01 02:43:37;;;;;;;8.77;3.17;;;;;;;15.04;78.34;99825.38;12173251;19;20079;-80
2023/01/01 02:47:38;;;;;;;5.38;3.17;;;;;;;15.14;77.56;99843.13;12197783;19;20394;-80
2023/01/01 02:51:57;;;;;;;5.97;3.60;;;;;;;15.14;76.76;99860.63;12196316;19;20047;-82
2023/01/01 02:56:33;;;;;;;5.60;3.25;;;;;;;15.25;76.73;99867.00;12173231;19;20524;-79
2023/01/01 03:00:35;;;;;;;7.35;3.42;;;;;;;15.22;76.70;99864.78;12196422;19;20010;-80
2023/01/01 03:05:07;;;;;;;4.32;2.80;;;;;;;15.14;76.41;99877.28;12172517;19;20006;-80
2023/01/01 03:09:54;;;;;;;11.63;4.40;;;;;;;15.13;76.17;99849.78;12199308;19;20007;-80
2023/01/01 03:14:12;;;;;;;7.10;4.25;;;;;;;15.18;76.19;99858.13;12172784;19;20093;-80
2023/01/01 03:18:23;;;;;;;8.63;4.50;;;;;;;15.13;76.29;99852.56;12198070;19;20011;-77
2023/01/01 03:22:30;;;;;;;9.38;4.57;;;;;;;15.07;76.86;99856.47;12196819;19;20060;-79
2023/01/01 03:26:34;;;;;;;8.13;4.28;;;;;;;15.01;77.08;99862.00;12237982;19;20007;-79
2023/01/01 03:30:38;;;;;;;7.80;4.13;;;;;;;14.89;77.75;99861.47;12197966;19;20011;-79
2023/01/01 03:34:46;;;;;;;9.63;4.03;;;;;;;14.86;77.68;99859.25;12170810;19;20024;-80
2023/01/01 03:38:57;;;;;;;6.72;3.92;;;;;;;14.88;77.60;99865.34;12192963;19;20006;-79
2023/01/01 03:43:10;;;;;;;9.98;4.07;;;;;;;14.89;77.22;99858.69;12167623;19;20006;-79
2023/01/01 03:47:13;;;;;;;11.70;4.65;;;;;;;14.91;76.92;99858.41;12234826;19;20885;-79
2023/01/01 03:51:37;;;;;;;9.10;3.58;;;;;;;14.94;76.36;99861.47;12210918;19;20007;-79
2023/01/01 03:55:52;;;;;;;5.97;3.80;;;;;;;14.90;76.23;99871.47;12171953;19;20003;-79
2023/01/01 04:00:15;;;;;;;8.00;3.55;;;;;;;14.90;75.29;99871.47;12188344;19;20002;-80
2023/01/01 04:04:18;;;;;;;8.15;4.07;;;;;;;14.98;75.06;99875.59;12172463;19;20014;-79
2023/01/01 04:08:20;;;;;;;;;;;;;;;14.94;74.52;99869.78;12195978;19;20035;-79
2023/01/01 04:12:22;;;;;;;7.68;4.80;;;;;;;14.97;74.39;99872.00;12189804;19;19910;-79
2023/01/01 04:16:24;;;;;;;11.13;5.95;;;;;;;14.97;73.98;99866.47;12172020;19;20499;-79
2023/01/01 04:20:25;;;;;;;13.10;6.18;;;;;;;14.97;73.72;99869.22;12201292;19;20007;-80
2023/01/01 04:24:27;;;;;;;9.82;4.47;;;;;;;14.97;73.06;99874.78;12226495;19;20031;-79
2023/01/01 04:28:29;;;;;;;6.27;3.17;;;;;;;14.98;73.43;99883.94;12206274;19;20010;-79
2023/01/01 04:32:30;;;;;;;10.02;3.58;;;;;;;14.86;73.69;99875.88;12201842;19;20264;-81
2023/01/01 04:36:33;;;;;;;7.60;3.67;;;;;;;14.72;74.13;99867.28;12197176;19;20007;-80
2023/01/01 04:40:34;;;;;;;6.32;3.75;;;;;;;14.72;74.09;99871.97;12170940;19;20026;-80
2023/01/01 04:44:36;;;;;;;8.82;3.97;;;;;;;14.74;73.90;99887.25;12190865;19;20011;-81
2023/01/01 04:48:38;;;;;;;6.80;3.85;;;;;;;14.73;73.61;99885.59;12195226;19;20027;-81
2023/01/01 04:52:39;;;;;;;6.40;3.25;;;;;;;14.78;73.72;99891.16;12177214;19;20006;-80
2023/01/01 04:56:41;;;;;;;8.02;3.55;;;;;;;14.76;73.89;99886.97;12208476;19;20109;-81
2023/01/01 05:00:43;;;;;;;7.32;3.88;;;;;;;14.73;74.16;99902.22;12204788;19;20010;-80
2023/01/01 05:04:44;;;;;;;10.07;5.03;;;;;;;14.64;74.28;99900.28;12187323;19;20046;-81
2023/01/01 05:08:48;;;;;;;6.45;3.92;;;;;;;14.53;74.43;99904.97;12204225;19;20014;-81
2023/01/01 05:12:49;;;;;;;7.95;3.72;;;;;;;14.49;74.80;99914.91;12204521;19;19998;-82
2023/01/01 05:16:51;;;;;;;9.25;3.80;;;;;;;14.62;74.05;99916.34;12180711;19;20370;-80
2023/01/01 05:20:58;;;;;;;6.40;3.55;;;;;;;14.63;74.09;99915.22;12201026;19;20504;-80
2023/01/01 05:25:00;;;;;;;6.18;3.20;;;;;;;14.59;74.11;99929.66;12177353;19;20037;-80
2023/01/01 05:29:02;;;;;;;6.65;3.65;;;;;;;14.59;74.31;99937.16;12202657;19;20357;-80
2023/01/01 05:33:04;;;;;;;7.45;3.58;;;;;;;14.55;74.74;99925.78;12199151;19;20042;-80
2023/01/01 05:37:06;;;;;;;7.35;3.67;;;;;;;14.50;75.05;99945.13;12180604;19;21353;-80
2023/01/01 05:41:09;;;;;;;9.85;4.40;;;;;;;14.50;75.02;99936.81;12200243;19;20014;-80
2023/01/01 05:45:11;;;;;;;7.97;3.67;;;;;;;14.45;75.17;99941.50;12200588;19;20014;-80
2023/01/01 05:49:12;;;;;;;7.88;3.60;;;;;;;14.41;75.31;99941.22;12181088;19;20015;-79
2023/01/01 05:53:14;;;;;;;7.32;4.10;;;;;;;14.34;75.49;99944.25;12199643;19;20090;-79
2023/01/01 05:57:16;;;;;;;8.13;3.72;;;;;;;14.27;75.78;99953.91;12200039;19;20031;-79
2023/01/01 06:01:23;;;;;;;8.55;3.60;;;;;;;14.19;76.48;99957.19;12176996;19;20515;-79
2023/01/01 06:05:25;;;;;;;5.43;3.03;;;;;;;14.14;76.06;99958.84;12196839;19;20083;-80
2023/01/01 06:09:27;;;;;;;9.32;3.70;;;;;;;14.18;76.35;99944.44;12199009;19;20976;-81
2023/01/01 06:13:29;;;;;;;6.10;3.20;;;;;;;14.24;75.75;99955.28;12176624;19;20010;-79
2023/01/01 06:17:32;;;;;;;8.10;2.83;;;;;;;14.17;75.15;99967.72;12197605;19;20003;-80
2023/01/01 06:21:34;;;;;;;7.30;3.88;;;;;;;14.24;75.14;99973.84;12197454;19;20015;-80
2023/01/01 06:25:35;;;;;;;7.85;2.90;;;;;;;14.26;74.86;99982.75;12182131;19;20041;-81
2023/01/01 06:29:37;;;;;;;7.35;3.25;;;;;;;14.25;74.79;99981.09;12199595;19;20042;-81
2023/01/01 06:33:39;;;;;;;6.95;3.10;;;;;;;14.20;75.23;99979.09;12201985;19;20010;-80
2023/01/01 06:37:41;;;;;;;7.55;3.30;;;;;;;14.18;75.21;99997.09;12180895;19;20090;-80
2023/01/01 06:41:43;;;;;;;5.85;2.90;;;;;;;14.13;75.48;99989.63;12199391;19;20098;-80
2023/01/01 06:45:44;;;;;;;6.60;3.65;;;;;;;14.11;75.47;99992.63;12202078;19;20075;-80
2023/01/01 06:49:46;;;;;;;9.20;3.80;;;;;;;14.08;75.72;99984.88;12176733;19;20003;-80
2023/01/01 06:53:48;;;;;;;6.25;3.40;;;;;;;14.00;76.21;100006.69;12198925;19;20007;-80
2023/01/01 06:57:51;;;;;;;6.45;3.20;;;;;;;13.99;76.05;100005.88;12201031;19;20484;-80
2023/01/01 07:01:53;;;;;;;8.85;3.17;;;;;;;13.93;76.24;100008.88;12173822;19;20002;-80
2023/01/01 07:05:54;;;;;;;5.55;2.83;;;;;;;13.91;76.43;100014.69;12196761;19;20361;-80
2023/01/01 07:09:56;;;;;;;5.75;2.63;;;;;;;13.96;76.11;100031.34;12177066;19;20461;-80
2023/01/01 07:13:58;;;;;;;6.68;2.80;;;;;;;13.89;76.49;100027.94;12195243;19;20011;-80
2023/01/01 07:17:59;;;;;;;6.57;3.22;;;;;;;13.87;76.15;100030.19;12195640;19;20550;-80
2023/01/01 07:22:02;;;;;;;5.95;2.80;;;;;;;13.87;76.28;100021.88;12173193;19;20031;-79
2023/01/01 07:26:04;;;;;;;9.40;3.35;;;;;;;13.87;76.12;100021.88;12195961;19;20010;-81
2023/01/01 07:30:06;;;;;;;8.02;3.13;;;;;;;13.85;76.28;100015.75;12205754;19;20079;-79
2023/01/01 07:34:22;;;;;;;7.47;2.70;;;;;;;13.83;76.37;100018.78;12213363;19;20011;-79
2023/01/01 07:38:24;;;;;;;7.57;3.08;;;;;;;13.84;76.15;100020.47;12234865;19;20082;-79
2023/01/01 07:42:25;;;;;;;7.97;3.13;;;;;;;13.80;76.30;100029.56;12232565;19;20006;-79
2023/01/01 07:46:28;;;;;;;5.38;2.55;;;;;;;13.80;76.58;100032.31;12174198;19;20026;-80
2023/01/01 07:50:31;;;;;;;9.40;2.92;;;;;;;13.84;76.03;100041.78;12193949;19;20007;-80
2023/01/01 07:54:35;;;;;;;8.40;2.67;;;;;;;13.96;75.52;100050.72;12194194;19;20151;-80
2023/01/01 07:58:40;;;;;;;6.80;3.28;;;;;;;13.97;75.40;100068.19;12173346;19;20011;-81
2023/01/01 08:02:42;;;;;;;8.05;2.70;;;;;;;14.02;75.17;100063.53;12197308;19;20027;-80
2023/01/01 08:06:44;;;;;;;4.78;2.50;;;;;;;13.98;75.58;100070.72;12201262;19;20003;-80
2023/01/01 08:10:46;;;;;;;6.80;2.72;;;;;;;14.00;75.61;100076.78;12172970;19;20027;-80
2023/01/01 08:14:48;;;;;;;8.02;2.72;;;;;;;14.04;75.26;100063.25;12206140;19;20017;-80
2023/01/01 08:18:50;;;;;;;7.38;2.53;;;;;;;14.07;75.33;100069.09;12203212;19;20027;-78
2023/01/01 08:22:52;;;;;;;6.88;2.42;;;;;;;14.07;75.03;100069.09;12178599;19;20002;-80
2023/01/01 08:26:53;;;;;;;9.50;2.80;;;;;;;14.15;74.87;100087.16;12201807;19;20006;-80
2023/01/01 08:30:55;;;;;;;6.47;2.58;;;;;;;14.19;74.88;100079.13;12196670;19;20013;-80
2023/01/01 08:34:57;;;;;;;5.95;3.15;;;;;;;14.17;74.88;100078.59;12206386;19;20007;-79
2023/01/01 08:38:59;;;;;;;6.23;2.50;;;;;;;14.12;75.14;100077.44;12210674;19;20092;-79
2023/01/01 08:43:01;;;;;;;6.00;2.42;;;;;;;14.16;74.98;100087.97;12231639;19;20044;-79
2023/01/01 08:47:02;;;;;;;8.02;2.83;;;;;;;14.17;74.70;100090.50;12236563;19;20002;-80
2023/01/01 08:51:04;;;;;;;7.43;2.45;;;;;;;14.24;74.49;100095.81;12202930;19;20022;-79
2023/01/01 08:55:08;;;;;;;6.15;2.50;;;;;;;14.36;73.86;100100.03;12181908;19;20018;-80
2023/01/01 08:59:10;;;;;;;9.90;2.28;;;;;;;14.44;73.59;100109.78;12201204;19;20010;-80
2023/01/01 09:03:12;;;;;;;7.03;2.33;;;;;;;14.55;72.95;100100.47;12202595;19;20034;-80
2023/01/01 09:07:14;;;;;;;5.20;2.30;;;;;;;14.69;72.22;100116.59;12185361;19;20982;-81
2023/01/01 09:11:24;;;;;;;6.50;2.30;;;;;;;14.82;71.72;100118.91;12203894;19;20007;-80
2023/01/01 09:15:26;;;;;;;5.45;2.53;;;;;;;14.95;71.05;100110.06;12210718;19;20492;-80
2023/01/01 09:19:28;;;;;;;9.93;2.88;;;;;;;15.11;70.69;100122.09;12183973;19;20762;-80
2023/01/01 09:23:30;;;;;;;6.67;2.07;;;;;;;15.22;69.66;100125.72;12200552;19;20034;-79
2023/01/01 09:27:32;;;;;;;8.47;2.20;;;;;;;15.38;69.50;100135.75;12210534;19;20016;-79
2023/01/01 09:31:33;;;;;;;7.68;2.45;;;;;;;15.46;68.65;100139.94;12168871;19;21193;-79
2023/01/01 09:35:37;;;;;;;7.28;2.42;;;;;;;15.54;68.17;100153.28;12200573;19;20857;-80
2023/01/01 09:39:39;;;;;;;10.98;3.00;;;;;;;15.65;68.03;100162.50;12192580;19;20018;-80
2023/01/01 09:44:23;;;;;;;5.45;2.13;;;;;;;15.77;67.02;100156.72;12173678;19;20041;-81
2023/01/01 09:48:28;;;;;;;6.97;2.30;;;;;;;15.76;66.59;100150.28;12160681;19;20011;-80
2023/01/01 09:52:56;;;;;;;10.70;2.03;;;;;;;15.83;66.78;100159.22;12176408;19;20002;-80
2023/01/01 09:57:00;;;;;;;11.15;2.70;;;;;;;15.86;66.58;100144.75;12197549;19;20002;-81
2023/01/01 10:01:20;;;;;;;8.32;2.20;;;;;;;15.89;66.41;100155.31;12174666;19;20011;-81
2023/01/01 10:05:40;;;;;;;4.78;1.90;;;;;;;15.89;65.45;100151.72;12203148;19;20014;-81
2023/01/01 10:10:00;;;;;;;7.30;1.95;;;;;;;15.95;66.38;100147.81;12202448;19;20027;-79
2023/01/01 10:14:26;;;;;;;5.00;2.35;;;;;;;15.94;66.02;100143.34;12180721;19;20014;-81
2023/01/01 10:18:32;;;;;;;8.35;2.25;;;;;;;15.85;65.88;100137.50;12204755;19;20017;-81
2023/01/01 10:22:41;;;;;;;6.63;2.33;;;;;;;15.93;65.39;100134.19;12178236;19;20140;-81
2023/01/01 10:26:43;;;;;;;7.20;2.65;;;;;;;16.00;65.69;100131.13;12197866;19;20038;-81
2023/01/01 10:30:45;;;;;;;7.67;1.93;;;;;;;16.11;65.45;100123.63;12193069;19;20038;-81
2023/01/01 10:34:49;;;;;;;6.07;1.98;;;;;;;16.25;64.85;100121.13;12171891;19;20820;-79
2023/01/01 10:38:51;;;;;;;8.90;2.35;;;;;;;16.45;63.86;100129.44;12192721;19;20006;-81
2023/01/01 10:42:55;;;;;;;7.65;2.20;;;;;;;16.81;63.41;100132.16;12193451;19;20011;-80
2023/01/01 10:47:08;;;;;;;8.85;2.35;;;;;;;17.12;62.13;100127.28;12173584;19;20311;-82
2023/01/01 10:51:16;;;;;;;5.47;2.38;;;;;;;17.12;61.33;100123.69;12219873;19;20038;-79
2023/01/01 10:55:20;;;;;;;8.10;2.83;;;;;;;17.14;61.21;100124.22;12232134;19;20038;-79
2023/01/01 10:59:37;;;;;;;5.90;2.50;;;;;;;17.08;60.83;100120.63;12232228;19;20041;-81
2023/01/01 11:03:53;;;;;;;6.90;2.20;;;;;;;17.11;61.19;100122.84;12204205;19;20007;-80
2023/01/01 11:07:55;;;;;;;8.75;2.35;;;;;;;17.10;61.35;100118.38;12179871;19;19999;-81
2023/01/01 11:12:00;;;;;;;10.23;2.33;;;;;;;17.10;60.97;100110.03;12199330;19;20185;-81
2023/01/01 11:16:11;;;;;;;6.60;2.30;;;;;;;17.04;60.89;100108.38;12177721;19;20116;-81
2023/01/01 11:20:17;;;;;;;;;;;;;;;17.06;60.05;100106.16;12198595;19;20026;-82
2023/01/01 11:24:25;;;;;;;9.73;2.65;;;;;;;17.08;61.38;100096.41;12193382;19;20435;-80
2023/01/01 11:28:30;;;;;;;8.85;2.45;;;;;;;17.18;61.55;100105.81;12170517;19;20014;-81
2023/01/01 11:32:35;;;;;;;5.95;3.58;;;;;;;17.11;61.78;100105.31;12194593;19;21238;-81
2023/01/01 11:36:38;;;;;;;13.30;2.92;;;;;;;17.09;61.59;100106.41;12196671;19;20011;-78
2023/01/01 11:40:50;;;;;;;7.45;2.67;;;;;;;16.88;61.71;100098.44;12172914;19;20015;-78
2023/01/01 11:45:11;;;;;;;5.75;2.25;;;;;;;16.73;62.78;100090.97;12191373;19;20042;-78
2023/01/01 11:49:23;;;;;;;9.23;3.10;;;;;;;16.70;63.65;100080.41;12171838;19;20006;-78
2023/01/01 11:53:27;;;;;;;;;;;;;;;16.59;64.03;100074.84;12198754;19;20019;-80
2023/01/01 11:57:29;;;;;;;9.05;2.58;;;;;;;16.56;64.65;100069.84;12192350;19;19907;-79
2023/01/01 12:01:39;;;;;;;7.65;2.42;;;;;;;16.54;65.13;100060.16;12175986;19;20074;-79
2023/01/01 12:05:58;;;;;;;8.52;2.67;;;;;;;16.66;64.90;100045.91;12211488;19;19999;-80
2023/01/01 12:10:05;;;;;;;4.68;2.13;;;;;;;16.74;64.63;100035.00;12186735;19;20078;-80
2023/01/01 12:14:18;;;;;;;6.35;2.53;;;;;;;16.61;64.41;100039.25;12205314;19;20006;-79
2023/01/01 12:18:36;;;;;;;7.65;2.53;;;;;;;16.59;64.60;100040.63;12206677;19;20034;-79
2023/01/01 12:22:39;;;;;;;7.63;2.05;;;;;;;16.59;64.62;100038.69;12181804;19;20026;-80
2023/01/01 12:26:59;;;;;;;8.25;2.13;;;;;;;16.52;64.27;100037.34;12202696;19;20508;-79
2023/01/01 12:31:18;;;;;;;6.75;2.50;;;;;;;16.48;63.64;100048.22;12182001;19;20458;-80
2023/01/01 12:35:44;;;;;;;9.07;2.40;;;;;;;16.46;63.76;100052.38;12208504;19;20006;-79
2023/01/01 12:40:25;;;;;;;5.38;2.13;;;;;;;16.52;63.92;100059.59;12203689;19;20007;-79
2023/01/01 12:45:07;;;;;;;6.82;2.50;;;;;;;16.56;64.15;100060.69;12182456;19;20015;-79
2023/01/01 12:49:22;;;;;;;7.80;2.20;;;;;;;16.57;63.74;100054.03;12179524;19;20090;-79
2023/01/01 12:53:47;;;;;;;9.95;2.78;;;;;;;16.64;63.16;100046.19;12200972;19;20094;-79
2023/01/01 12:57:58;;;;;;;9.10;2.67;;;;;;;16.60;63.74;100050.69;12210809;19;20660;-80
2023/01/01 13:02:02;;;;;;;5.85;2.33;;;;;;;16.68;63.58;100052.84;12174399;19;20041;-79
2023/01/01 13:06:10;;;;;;;11.95;2.42;;;;;;;16.70;63.44;100058.97;12207261;19;20019;-79
2023/01/01 13:10:22;;;;;;;7.50;2.30;;;;;;;16.66;63.60;100054.25;12179244;19;20007;-79
2023/01/01 13:14:24;;;;;;;6.33;1.87;;;;;;;16.60;63.80;100053.47;12201317;19;20007;-80
2023/01/01 13:18:34;;;;;;;9.40;2.80;;;;;;;16.60;63.95;100059.84;12199538;19;20011;-80
2023/01/01 13:22:38;;;;;;;5.93;2.38;;;;;;;16.53;64.32;100053.72;12176067;19;20006;-79
2023/01/01 13:26:40;;;;;;;5.28;2.78;;;;;;;16.46;64.64;100055.16;12198362;19;20027;-79
2023/01/01 13:30:42;;;;;;;10.77;2.58;;;;;;;16.35;64.76;100057.13;12196711;19;20098;-79
2023/01/01 13:35:01;;;;;;;5.55;2.13;;;;;;;16.31;65.12;100061.59;12174381;19;20038;-79
2023/01/01 13:39:03;;;;;;;11.98;3.20;;;;;;;16.25;65.07;100065.50;12199448;19;20017;-79
2023/01/01 13:43:14;;;;;;;10.50;2.47;;;;;;;16.20;65.55;100065.50;12174689;19;20015;-80
2023/01/01 13:47:48;;;;;;;8.48;2.88;;;;;;;16.14;65.48;100059.13;12199862;19;20010;-80
2023/01/01 13:52:04;;;;;;;6.40;2.40;;;;;;;16.09;65.92;100068.31;12248788;19;20011;-79
2023/01/01 13:56:09;;;;;;;10.50;2.60;;;;;;;16.05;66.16;100071.94;12184758;19;21603;-79
2023/01/01 14:00:21;;;;;;;;;;;;;;;15.95;66.78;100070.84;12250768;19;19995;-79
2023/01/01 14:04:40;;;;;;;6.85;2.97;;;;;;;15.88;67.10;100059.19;12208350;19;19919;-80
2023/01/01 14:08:42;;;;;;;10.18;2.80;;;;;;;15.85;67.39;100054.16;12203542;19;20404;-79
2023/01/01 14:12:44;;;;;;;7.50;2.75;;;;;;;15.82;67.68;100060.25;12203036;19;20015;-79
2023/01/01 14:16:46;;;;;;;8.77;2.45;;;;;;;15.82;68.12;100062.22;12174205;19;20010;-79
2023/01/01 14:20:50;;;;;;;8.18;2.88;;;;;;;15.85;68.04;100064.44;12196209;19;20010;-79
2023/01/01 14:24:52;;;;;;;8.60;3.45;;;;;;;15.87;68.57;100051.94;12192469;19;20035;-80
2023/01/01 14:29:02;;;;;;;8.40;2.78;;;;;;;15.91;68.55;100053.06;12176138;19;20013;-79
2023/01/01 14:33:03;;;;;;;6.07;2.75;;;;;;;15.91;68.69;100053.06;12197364;19;20388;-80
2023/01/01 14:37:20;;;;;;;9.80;2.67;;;;;;;15.88;68.96;100059.19;12174391;19;20117;-79
2023/01/01 14:41:33;;;;;;;8.45;3.17;;;;;;;15.83;68.69;100053.63;12193638;19;20014;-80
2023/01/01 14:45:42;;;;;;;7.80;2.55;;;;;;;15.79;69.07;100058.03;12193965;19;20015;-79
2023/01/01 14:49:44;;;;;;;10.57;3.28;;;;;;;15.75;68.79;100065.28;12169433;19;20462;-79
2023/01/01 14:53:47;;;;;;;7.55;3.05;;;;;;;15.71;69.28;100069.75;12192652;19;20010;-80
2023/01/01 14:57:56;;;;;;;8.63;3.00;;;;;;;15.67;69.20;100063.00;12197489;19;20637;-80
2023/01/01 15:02:16;;;;;;;5.72;2.80;;;;;;;15.55;69.46;100066.06;12169259;19;20014;-79
2023/01/01 15:06:19;;;;;;;8.18;2.97;;;;;;;15.51;69.51;100053.84;12197452;19;20010;-80
2023/01/01 15:10:20;;;;;;;11.07;3.05;;;;;;;15.49;69.36;100056.91;12175536;19;20070;-80
2023/01/01 15:14:34;;;;;;;6.90;2.47;;;;;;;15.43;69.77;100071.88;12193952;19;20007;-79
2023/01/01 15:18:44;;;;;;;6.72;2.75;;;;;;;15.30;70.13;100064.09;12195490;19;20031;-80
2023/01/01 15:22:48;;;;;;;9.88;2.90;;;;;;;15.23;70.30;100058.00;12179580;19;20007;-80
2023/01/01 15:26:55;;;;;;;6.32;2.92;;;;;;;15.17;70.24;100047.97;12197716;19;20054;-79
2023/01/01 15:30:59;;;;;;;11.02;3.38;;;;;;;15.02;70.76;100043.22;12184923;19;20034;-79
2023/01/01 15:35:03;;;;;;;8.52;3.70;;;;;;;14.87;71.40;100038.44;12193594;19;20485;-79
2023/01/01 15:39:10;;;;;;;7.80;3.28;;;;;;;14.85;71.33;100029.59;12193328;19;20077;-80
2023/01/01 15:43:24;;;;;;;11.10;2.95;;;;;;;14.82;71.45;100025.41;12169307;19;20022;-79
2023/01/01 15:47:26;;;;;;;8.88;2.60;;;;;;;14.83;71.52;100023.47;12192026;19;20125;-80
2023/01/01 15:51:28;;;;;;;8.13;2.93;;;;;;;14.82;72.07;100021.81;12187086;19;20007;-79
2023/01/01 15:55:33;;;;;;;12.13;2.90;;;;;;;14.81;71.90;100015.44;12164670;19;20449;-79
2023/01/01 15:59:35;;;;;;;5.30;2.85;;;;;;;14.81;72.09;100020.13;12195438;19;20011;-80
2023/01/01 16:03:39;;;;;;;10.07;3.13;;;;;;;14.79;72.27;100031.50;12186067;19;20731;-80
2023/01/01 16:07:41;;;;;;;7.07;2.25;;;;;;;14.76;73.12;100007.09;12164361;19;20046;-80
2023/01/01 16:11:43;;;;;;;7.80;3.70;;;;;;;14.77;72.89;100010.69;12207079;19;20006;-80
2023/01/01 16:15:51;;;;;;;11.55;3.63;;;;;;;14.78;72.65;100010.44;12207189;19;20026;-80
2023/01/01 16:19:55;;;;;;;11.05;3.05;;;;;;;14.79;72.48;100014.03;12185112;19;20006;-80
2023/01/01 16:23:58;;;;;;;12.00;3.55;;;;;;;14.84;72.21;100021.53;12192582;19;20007;-79
2023/01/01 16:28:02;;;;;;;8.60;2.60;;;;;;;14.88;71.90;100020.72;12170614;19;20611;-79
2023/01/01 16:32:04;;;;;;;13.40;3.17;;;;;;;14.93;71.66;100012.41;12192715;19;20010;-79
2023/01/01 16:36:10;;;;;;;7.13;2.53;;;;;;;14.97;71.37;100009.91;12195600;19;20090;-79
2023/01/01 16:40:14;;;;;;;8.15;2.90;;;;;;;14.98;71.57;100017.97;12171510;19;20252;-79
2023/01/01 16:44:16;;;;;;;8.75;2.80;;;;;;;15.03;71.07;100008.81;12192308;19;20020;-79
2023/01/01 16:48:22;;;;;;;7.63;2.50;;;;;;;15.07;70.95;100009.09;12196007;19;20468;-80
2023/01/01 16:52:32;;;;;;;6.15;2.20;;;;;;;15.10;70.74;100003.00;12185396;19;20010;-79
2023/01/01 16:56:34;;;;;;;10.88;4.18;;;;;;;15.13;70.39;99985.78;12205370;19;20019;-80
2023/01/01 17:00:37;;;;;;;6.82;2.85;;;;;;;15.11;70.74;99982.44;12206258;19;20014;-79
2023/01/01 17:04:39;;;;;;;7.72;3.50;;;;;;;15.07;70.78;99973.03;12182284;19;20011;-79
2023/01/01 17:08:41;;;;;;;7.30;2.55;;;;;;;15.06;70.77;99963.03;12208147;19;20107;-78
2023/01/01 17:12:42;;;;;;;5.72;2.58;;;;;;;15.07;70.32;99968.31;12223036;19;20070;-79
2023/01/01 17:16:44;;;;;;;6.40;3.08;;;;;;;15.09;70.43;99954.16;12210566;19;20007;-79
2023/01/01 17:20:46;;;;;;;7.28;2.92;;;;;;;15.10;70.05;99958.59;12259112;19;20014;-79
2023/01/01 17:24:47;;;;;;;6.32;2.60;;;;;;;15.13;69.79;99952.50;12240829;19;20099;-81
2023/01/01 17:28:50;;;;;;;4.45;2.28;;;;;;;15.19;68.89;99959.69;12191771;19;20111;-80
2023/01/01 17:33:00;;;;;;;5.40;2.10;;;;;;;15.26;69.28;99961.09;12207832;19;20011;-79
2023/01/01 17:37:02;;;;;;;9.10;3.30;;;;;;;15.28;69.13;99944.16;12186900;19;20046;-79
2023/01/01 17:41:10;;;;;;;11.85;4.07;;;;;;;15.30;68.83;99944.72;12207676;19;20011;-80
2023/01/01 17:45:11;;;;;;;6.90;2.40;;;;;;;15.33;68.86;99946.94;12204539;19;20034;-80
2023/01/01 17:49:13;;;;;;;12.65;3.92;;;;;;;15.30;68.98;99935.56;12185178;19;20021;-80
2023/01/01 17:53:15;;;;;;;9.43;3.03;;;;;;;15.29;68.88;99923.63;12203071;19;20416;-79
2023/01/01 17:57:19;;;;;;;11.73;4.20;;;;;;;15.34;68.33;99933.88;12202412;19;20026;-79
2023/01/01 18:01:20;;;;;;;9.00;2.75;;;;;;;15.32;69.01;99931.41;12176859;19;20023;-78
2023/01/01 18:05:22;;;;;;;4.73;2.20;;;;;;;15.28;68.82;99931.09;12190919;19;20491;-79
2023/01/01 18:09:24;;;;;;;7.87;2.93;;;;;;;15.33;68.41;99929.47;12200506;19;20014;-79
2023/01/01 18:13:26;;;;;;;8.70;2.40;;;;;;;15.35;68.13;99921.66;12179452;19;20010;-79
2023/01/01 18:17:27;;;;;;;9.90;2.20;;;;;;;15.36;67.50;99915.03;12202540;19;20007;-80
2023/01/01 18:21:31;;;;;;;6.15;2.08;;;;;;;15.39;66.74;99906.13;12198323;19;20002;-80
2023/01/01 18:25:33;;;;;;;4.88;2.33;;;;;;;15.35;66.89;99883.66;12176310;19;20010;-79
2023/01/01 18:29:36;;;;;;;6.85;1.88;;;;;;;15.38;66.59;99860.88;12204611;19;20147;-80
2023/01/01 18:33:40;;;;;;;7.47;2.50;;;;;;;15.36;67.19;99868.66;12201387;19;20049;-79
2023/01/01 18:37:42;;;;;;;6.65;2.33;;;;;;;15.32;67.48;99884.22;12180475;19;20404;-81
2023/01/01 18:42:08;;;;;;;4.65;2.22;;;;;;;15.20;67.31;99880.88;12198693;19;20891;-80
2023/01/01 18:46:10;;;;;;;7.88;2.20;;;;;;;15.11;67.50;99871.44;12182339;19;20002;-81
2023/01/01 18:50:24;;;;;;;6.78;2.53;;;;;;;15.03;68.16;99870.06;12204430;19;20039;-80
2023/01/01 18:54:28;;;;;;;6.80;2.53;;;;;;;14.94;67.89;99867.00;12203398;19;20018;-80
2023/01/01 18:58:31;;;;;;;6.47;2.33;;;;;;;14.93;68.18;99859.81;12179626;19;20566;-82
2023/01/01 19:02:39;;;;;;;7.25;2.90;;;;;;;14.89;68.10;99841.22;12199102;19;20014;-81